Time;durP1;ratioP1;P1;durP2;ratioP2;P2;SDS_P1;SDS_P2;PMS_P1;PMS_P2;Temp;Humidity;BMP_temperature;BMP_pressure;BME280_temperature;BME280_humidity;BME280_pressure;Samples;Min_cycle;Max_cycle;Signal;HPM_P1;HPM_P2
2023/04/09 00:00:22;;;;;;;18.03;13.37;;;3.80;99.90;5.10;97272.00;;;;5077049;28;20476;-70
2023/04/09 00:03:12;;;;;;;16.60;14.47;;;3.80;99.90;5.10;97273.00;;;;5080286;28;20522;-70
2023/04/09 00:06:01;;;;;;;21.73;14.57;;;3.80;99.90;5.10;97263.00;;;;5082490;28;20414;-71
2023/04/09 00:08:49;;;;;;;17.23;13.23;;;3.80;99.90;5.10;97266.00;;;;5082026;28;20433;-70
2023/04/09 00:11:38;;;;;;;19.70;13.60;;;3.80;99.90;5.00;97263.00;;;;5083934;28;20999;-70
2023/04/09 00:14:27;;;;;;;16.77;13.80;;;3.80;99.90;5.00;97265.00;;;;5080449;28;20474;-71
2023/04/09 00:17:15;;;;;;;20.37;14.43;;;3.80;99.90;5.00;97253.00;;;;5079255;28;20464;-71
2023/04/09 00:20:07;;;;;;;17.90;13.67;;;3.80;99.90;5.00;97264.00;;;;5081594;28;20486;-70
2023/04/09 00:22:57;;;;;;;18.60;15.03;;;3.70;99.90;5.10;97265.00;;;;5088352;28;21001;-71
2023/04/09 00:25:45;;;;;;;19.50;14.60;;;3.70;99.90;5.10;97257.00;;;;5089029;28;20519;-71
2023/04/09 00:28:34;;;;;;;21.47;16.10;;;3.80;99.90;5.10;97258.00;;;;5082323;28;20456;-72
2023/04/09 00:31:23;;;;;;;19.57;14.43;;;3.80;99.90;5.10;97257.00;;;;5087582;28;20461;-70
2023/04/09 00:34:12;;;;;;;17.50;13.73;;;3.80;99.90;5.20;97262.00;;;;5090717;28;20843;-70
2023/04/09 00:37:02;;;;;;;18.83;15.67;;;3.80;99.90;5.10;97262.00;;;;5085520;28;20483;-70
2023/04/09 00:39:51;;;;;;;16.43;14.43;;;3.80;99.90;5.20;97259.00;;;;5090059;28;20437;-70
2023/04/09 00:42:40;;;;;;;21.27;15.03;;;3.90;99.90;5.10;97262.00;;;;5086252;28;21000;-70
2023/04/09 00:45:29;;;;;;;20.87;15.90;;;3.80;99.90;5.00;97252.00;;;;5087761;28;20457;-71
2023/04/09 00:48:18;;;;;;;21.50;14.17;;;3.80;99.90;4.90;97247.00;;;;5087513;28;20426;-70
2023/04/09 00:51:08;;;;;;;20.10;13.87;;;3.80;99.90;5.00;97263.00;;;;5088675;28;20472;-70
2023/04/09 00:53:58;;;;;;;20.90;14.43;;;3.80;99.90;5.00;97258.00;;;;5088270;28;21134;-70
2023/04/09 00:56:48;;;;;;;22.93;13.50;;;3.80;99.90;5.00;97247.00;;;;5092047;28;20429;-70
2023/04/09 00:59:37;;;;;;;17.67;14.77;;;3.80;99.90;5.10;97260.00;;;;5083666;28;20430;-70
2023/04/09 01:02:26;;;;;;;20.00;15.47;;;3.80;99.90;5.10;97266.00;;;;5085162;28;20956;-70
2023/04/09 01:05:15;;;;;;;19.80;14.17;;;3.80;99.90;5.10;97254.00;;;;5083230;28;20437;-71
2023/04/09 01:08:16;;;;;;;16.73;13.97;;;3.80;99.90;5.10;97263.00;;;;5086839;28;20844;-70
2023/04/09 01:11:16;;;;;;;22.43;15.10;;;3.80;99.90;5.10;97262.00;;;;5089796;28;20547;-70
2023/04/09 01:14:13;;;;;;;18.00;14.20;;;3.80;99.90;5.00;97261.00;;;;5088738;28;20469;-70
2023/04/09 01:17:08;;;;;;;18.03;14.27;;;3.80;99.90;5.00;97255.00;;;;5090193;28;20486;-70
2023/04/09 01:20:04;;;;;;;17.37;13.77;;;3.80;99.90;4.90;97247.00;;;;5088694;28;20448;-70
2023/04/09 01:23:07;;;;;;;21.10;14.90;;;3.80;99.90;5.00;97245.00;;;;5088884;28;20456;-70
2023/04/09 01:26:07;;;;;;;19.00;13.70;;;3.80;99.90;5.00;97249.00;;;;5088639;28;20433;-70
2023/04/09 01:29:00;;;;;;;17.70;14.90;;;3.80;99.90;4.80;97253.00;;;;5088585;28;20482;-71
2023/04/09 01:31:49;;;;;;;22.73;15.47;;;3.70;99.90;4.70;97255.00;;;;5086286;28;20530;-70
2023/04/09 01:34:38;;;;;;;17.97;14.33;;;3.70;99.90;4.60;97258.00;;;;5084958;28;20489;-70
2023/04/09 01:37:28;;;;;;;21.20;14.73;;;3.60;99.90;4.70;97248.00;;;;5087793;28;20414;-70
2023/04/09 01:40:17;;;;;;;19.67;14.07;;;3.60;99.90;4.80;97243.00;;;;5087738;28;20468;-70
2023/04/09 01:43:08;;;;;;;20.43;14.00;;;3.60;99.90;4.80;97240.00;;;;5072951;28;20426;-70
2023/04/09 01:45:59;;;;;;;19.97;15.73;;;3.60;99.90;4.90;97243.00;;;;5083877;28;20442;-70
2023/04/09 01:48:49;;;;;;;22.07;16.27;;;3.70;99.90;4.80;97240.00;;;;5085455;28;20425;-70
2023/04/09 01:51:38;;;;;;;21.80;15.50;;;3.60;99.90;4.90;97245.00;;;;5088124;28;20540;-71
2023/04/09 01:54:27;;;;;;;18.50;14.47;;;3.70;99.90;4.60;97230.00;;;;5087438;28;20476;-70
2023/04/09 01:57:16;;;;;;;22.63;15.73;;;3.60;99.90;4.70;97234.00;;;;5084471;28;20434;-70
2023/04/09 02:00:08;;;;;;;22.53;14.73;;;3.60;99.90;4.80;97249.00;;;;5072022;28;20425;-70
2023/04/09 02:03:06;;;;;;;20.50;14.57;;;3.60;99.90;4.90;97243.00;;;;5087532;28;20461;-70
2023/04/09 02:06:08;;;;;;;20.87;14.60;;;3.60;99.90;4.80;97244.00;;;;5083505;28;20436;-70
2023/04/09 02:09:00;;;;;;;24.77;14.70;;;3.60;99.90;4.80;97240.00;;;;5088046;28;20445;-70
2023/04/09 02:11:50;;;;;;;22.37;16.50;;;3.60;99.90;4.80;97243.00;;;;5088306;28;20536;-71
2023/04/09 02:14:41;;;;;;;20.97;14.17;;;3.60;99.90;4.70;97238.00;;;;5086703;28;20472;-71
2023/04/09 02:17:30;;;;;;;21.10;15.20;;;3.60;99.90;4.50;97235.00;;;;5086084;28;20426;-71
2023/04/09 02:20:20;;;;;;;26.70;15.40;;;3.60;99.90;4.70;97234.00;;;;5086164;28;20425;-71
2023/04/09 02:23:09;;;;;;;22.23;15.50;;;3.50;99.90;4.90;97240.00;;;;5087853;28;20422;-71
2023/04/09 02:25:58;;;;;;;22.70;16.40;;;3.60;99.90;4.80;97240.00;;;;5084847;28;20433;-70
2023/04/09 02:28:46;;;;;;;26.60;16.37;;;3.60;99.90;4.80;97234.00;;;;5087745;28;20422;-70
2023/04/09 02:31:35;;;;;;;20.50;16.63;;;3.60;99.90;4.50;97230.00;;;;5083668;28;20475;-71
2023/04/09 02:34:24;;;;;;;22.87;15.50;;;3.60;99.90;4.60;97228.00;;;;5087222;28;20964;-70
2023/04/09 02:37:14;;;;;;;19.50;14.83;;;3.60;99.90;4.50;97232.00;;;;5087237;28;20429;-70
2023/04/09 02:40:03;;;;;;;20.00;14.80;;;3.50;99.90;4.50;97227.00;;;;5087864;28;20441;-70
2023/04/09 02:42:53;;;;;;;19.70;15.40;;;3.50;99.90;4.50;97233.00;;;;5084189;28;20445;-70
2023/04/09 02:45:41;;;;;;;20.93;15.63;;;3.50;99.90;4.50;97228.00;;;;5083066;28;20426;-70
2023/04/09 02:48:30;;;;;;;22.80;14.70;;;3.40;99.90;4.50;97227.00;;;;5085058;28;20429;-70
2023/04/09 02:51:20;;;;;;;18.03;13.83;;;3.40;99.90;4.60;97216.00;;;;5087820;28;20465;-70
2023/04/09 02:54:10;;;;;;;21.87;14.70;;;3.40;99.90;4.50;97222.00;;;;5074036;28;20802;-70
2023/04/09 02:56:59;;;;;;;18.57;13.60;;;3.40;99.90;4.40;97217.00;;;;5088031;28;20434;-70
2023/04/09 02:59:48;;;;;;;20.73;14.97;;;3.40;99.90;4.50;97219.00;;;;5086054;28;20453;-70
2023/04/09 03:02:37;;;;;;;20.33;14.17;;;3.50;99.90;4.60;97227.00;;;;5083518;28;20442;-70
2023/04/09 03:05:26;;;;;;;22.33;15.87;;;3.40;99.90;4.60;97231.00;;;;5084605;28;20422;-70
2023/04/09 03:08:14;;;;;;;17.83;13.70;;;3.40;99.90;4.60;97221.00;;;;5086269;28;20422;-70
2023/04/09 03:11:05;;;;;;;22.50;15.43;;;3.40;99.90;4.60;97213.00;;;;5084732;28;20457;-70
2023/04/09 03:13:53;;;;;;;21.00;13.77;;;3.40;99.90;4.60;97216.00;;;;5086389;28;20437;-70
2023/04/09 03:16:42;;;;;;;20.30;15.70;;;3.40;99.90;4.60;97208.00;;;;5086068;28;20468;-71
2023/04/09 03:19:31;;;;;;;20.47;15.47;;;3.30;99.90;4.60;97203.00;;;;5087366;28;20421;-71
2023/04/09 03:22:20;;;;;;;20.93;15.33;;;3.40;99.90;4.60;97213.00;;;;5082929;28;20502;-71
2023/04/09 03:25:09;;;;;;;19.00;14.70;;;3.40;99.90;4.70;97211.00;;;;5076930;28;20451;-71
2023/04/09 03:27:59;;;;;;;23.80;14.90;;;3.40;99.90;4.70;97213.00;;;;5079107;28;20434;-71
2023/04/09 03:30:48;;;;;;;22.50;15.63;;;3.30;99.90;4.50;97211.00;;;;5076493;28;20452;-71
2023/04/09 03:33:37;;;;;;;21.47;15.60;;;3.40;99.90;4.50;97205.00;;;;5078041;28;20434;-71
2023/04/09 03:36:26;;;;;;;23.50;16.57;;;3.40;99.90;4.50;97201.00;;;;5082424;28;20461;-71
2023/04/09 03:39:15;;;;;;;22.00;15.17;;;3.40;99.90;4.60;97211.00;;;;5082022;28;20916;-71
2023/04/09 03:42:04;;;;;;;23.33;15.10;;;3.40;99.90;4.70;97212.00;;;;5074146;28;20494;-71
2023/04/09 03:44:55;;;;;;;19.40;14.10;;;3.40;99.90;4.60;97216.00;;;;5074378;28;20949;-71
2023/04/09 03:47:44;;;;;;;22.70;15.37;;;3.40;99.90;4.70;97208.00;;;;5075265;28;20972;-71
2023/04/09 03:50:38;;;;;;;25.13;15.83;;;3.50;99.90;4.70;97203.00;;;;5080899;28;20450;-71
2023/04/09 03:53:26;;;;;;;23.37;16.00;;;3.50;99.90;4.70;97208.00;;;;5078388;28;20442;-71
2023/04/09 03:56:15;;;;;;;19.70;16.13;;;3.50;99.90;4.60;97222.00;;;;5079990;28;20465;-71
2023/04/09 03:59:04;;;;;;;17.13;12.43;;;3.50;99.90;4.60;97205.00;;;;5085363;28;20432;-71
2023/04/09 04:01:54;;;;;;;20.97;14.07;;;3.50;99.90;4.60;97209.00;;;;5081457;28;20481;-71
2023/04/09 04:04:42;;;;;;;20.50;15.47;;;3.40;99.90;4.70;97211.00;;;;5087285;28;20433;-71
2023/04/09 04:07:33;;;;;;;20.83;15.00;;;3.50;99.90;4.70;97212.00;;;;5082395;28;20426;-71
2023/04/09 04:10:21;;;;;;;22.23;16.57;;;3.50;99.90;4.70;97213.00;;;;5086699;28;20461;-71
2023/04/09 04:13:10;;;;;;;24.17;16.23;;;3.50;99.90;4.70;97212.00;;;;5084114;28;20523;-71
2023/04/09 04:15:59;;;;;;;24.80;15.23;;;3.50;99.90;4.70;97221.00;;;;5083220;28;20468;-71
2023/04/09 04:18:49;;;;;;;21.73;16.43;;;3.50;99.90;4.80;97225.00;;;;5081535;28;20432;-71
2023/04/09 04:21:38;;;;;;;19.73;15.67;;;3.50;99.90;4.80;97228.00;;;;5083669;28;21113;-71
2023/04/09 04:24:27;;;;;;;26.30;17.57;;;3.50;99.90;4.80;97223.00;;;;5087322;28;20795;-71
2023/04/09 04:27:15;;;;;;;19.53;14.93;;;3.60;99.90;4.70;97231.00;;;;5081742;28;20567;-71
2023/04/09 04:30:06;;;;;;;23.40;16.50;;;3.60;99.90;4.60;97225.00;;;;5088255;28;20426;-71
2023/04/09 04:32:54;;;;;;;24.77;17.27;;;3.50;99.90;4.70;97226.00;;;;5089284;28;20501;-71
2023/04/09 04:35:44;;;;;;;22.33;15.40;;;3.60;99.90;4.70;97237.00;;;;5085696;28;20873;-71
2023/04/09 04:38:33;;;;;;;27.40;17.00;;;3.50;99.90;4.60;97230.00;;;;5079283;28;20429;-71
2023/04/09 04:41:22;;;;;;;24.50;16.57;;;3.50;99.90;4.50;97227.00;;;;5081935;28;20458;-71
2023/04/09 04:44:11;;;;;;;25.57;17.30;;;3.50;99.90;4.50;97230.00;;;;5087131;28;20459;-71
2023/04/09 04:46:59;;;;;;;22.00;14.67;;;3.60;99.90;4.60;97227.00;;;;5087126;28;20997;-71
2023/04/09 04:49:48;;;;;;;17.83;14.60;;;3.50;99.90;4.50;97228.00;;;;5086035;28;20418;-71
2023/04/09 04:52:39;;;;;;;22.67;15.67;;;3.40;99.90;4.30;97229.00;;;;5081208;28;20440;-71
2023/04/09 04:55:27;;;;;;;20.77;14.77;;;3.40;99.90;4.30;97231.00;;;;5082806;28;20437;-71
2023/04/09 04:58:16;;;;;;;21.50;15.70;;;3.40;99.90;4.30;97228.00;;;;5087047;28;20467;-71
2023/04/09 05:01:05;;;;;;;21.07;14.93;;;3.40;99.90;4.40;97232.00;;;;5083082;28;20461;-71
2023/04/09 05:03:54;;;;;;;21.30;15.77;;;3.40;99.90;4.40;97233.00;;;;5086026;28;20434;-71
2023/04/09 05:06:42;;;;;;;20.03;14.63;;;3.40;99.90;4.30;97226.00;;;;5091571;28;20426;-71
2023/04/09 05:09:32;;;;;;;17.00;13.60;;;3.40;99.90;4.20;97223.00;;;;5091767;28;20413;-71
2023/04/09 05:12:21;;;;;;;21.47;14.07;;;3.30;99.90;4.20;97219.00;;;;5089830;28;20441;-71
2023/04/09 05:15:10;;;;;;;20.43;14.43;;;3.40;99.90;4.40;97232.00;;;;5089160;28;20500;-71
2023/04/09 05:17:59;;;;;;;26.70;20.08;;;3.30;99.90;4.40;97230.00;;;;5088059;28;20432;-71
2023/04/09 05:20:48;;;;;;;25.20;20.17;;;3.30;99.90;4.50;97230.00;;;;5090739;28;20386;-71
2023/04/09 05:23:36;;;;;;;19.27;15.53;;;3.40;99.90;4.60;97225.00;;;;5091972;28;20199;-71
2023/04/09 05:26:26;;;;;;;21.20;15.73;;;3.40;99.90;4.80;97232.00;;;;5091284;28;20206;-71
2023/04/09 05:29:16;;;;;;;19.93;15.73;;;3.50;99.90;5.00;97225.00;;;;5090981;28;20478;-70
2023/04/09 05:32:05;;;;;;;23.10;14.50;;;3.60;99.90;5.10;97242.00;;;;5086744;28;20460;-71
2023/04/09 05:34:54;;;;;;;21.03;15.67;;;3.70;99.90;5.20;97241.00;;;;5086579;28;20418;-72
2023/04/09 05:37:43;;;;;;;20.63;14.97;;;3.70;99.90;5.20;97240.00;;;;5088379;28;20559;-72
2023/04/09 05:40:31;;;;;;;17.87;13.70;;;3.80;99.90;5.30;97247.00;;;;5081983;28;20450;-72
2023/04/09 05:43:21;;;;;;;21.23;14.97;;;3.90;99.90;5.40;97248.00;;;;5076141;28;20430;-72
2023/04/09 05:46:10;;;;;;;20.33;14.30;;;4.00;99.90;5.40;97245.00;;;;5078416;28;20199;-72
2023/04/09 05:48:59;;;;;;;21.07;15.10;;;4.00;99.90;5.50;97252.00;;;;5083347;28;20196;-72
2023/04/09 05:51:48;;;;;;;21.77;15.10;;;4.10;99.90;5.60;97258.00;;;;5081114;28;20219;-72
2023/04/09 05:54:37;;;;;;;18.93;13.93;;;4.20;99.90;5.70;97265.00;;;;5076816;28;20197;-71
2023/04/09 05:57:26;;;;;;;15.83;14.13;;;4.20;99.90;5.70;97261.00;;;;5083069;28;20534;-72
2023/04/09 06:00:17;;;;;;;16.97;11.27;;;4.30;99.90;5.80;97268.00;;;;5079291;28;20479;-72
2023/04/09 06:03:06;;;;;;;14.10;10.73;;;4.30;99.90;5.90;97280.00;;;;5090415;28;20207;-72
2023/04/09 06:05:55;;;;;;;14.73;10.87;;;4.40;99.90;6.00;97286.00;;;;5088420;28;20437;-72
2023/04/09 06:08:44;;;;;;;12.00;10.70;;;4.50;99.90;5.80;97280.00;;;;5085952;28;20567;-72
2023/04/09 06:11:33;;;;;;;13.63;10.27;;;4.50;99.90;5.80;97279.00;;;;5089034;28;20231;-71
2023/04/09 06:14:22;;;;;;;11.97;9.93;;;4.50;99.90;5.60;97272.00;;;;5082948;28;20208;-72
2023/04/09 06:17:12;;;;;;;11.60;9.43;;;4.50;99.90;5.70;97280.00;;;;5084296;28;20250;-72
2023/04/09 06:20:00;;;;;;;11.93;8.80;;;4.40;99.90;5.60;97279.00;;;;5085405;28;20219;-71
2023/04/09 06:22:49;;;;;;;15.47;9.93;;;4.40;99.90;5.50;97272.00;;;;5083562;28;20437;-71
2023/04/09 06:25:38;;;;;;;12.70;10.33;;;4.40;99.90;5.60;97279.00;;;;5084951;28;20203;-71
2023/04/09 06:28:27;;;;;;;11.23;9.33;;;4.40;99.90;5.70;97281.00;;;;5086454;28;20557;-72
2023/04/09 06:31:16;;;;;;;10.37;8.87;;;4.40;99.90;5.70;97281.00;;;;5094312;28;20814;-71
2023/04/09 06:34:06;;;;;;;9.80;8.63;;;4.40;99.90;5.60;97271.00;;;;5093394;28;20199;-71
2023/04/09 06:36:55;;;;;;;12.20;10.07;;;4.40;99.90;5.60;97285.00;;;;5087640;28;20227;-71
2023/04/09 06:39:44;;;;;;;14.10;11.47;;;4.30;99.90;5.70;97274.00;;;;5086560;28;20437;-71
2023/04/09 06:42:41;;;;;;;10.77;9.50;;;4.40;99.90;5.80;97284.00;;;;5083897;28;20672;-71
2023/04/09 06:45:31;;;;;;;41.00;27.63;;;4.40;99.90;5.60;97286.00;;;;5081729;28;22068;-72
2023/04/09 06:48:20;;;;;;;19.30;13.87;;;4.40;99.90;5.70;97288.00;;;;5086936;28;20198;-71
2023/04/09 06:51:10;;;;;;;17.70;11.67;;;4.40;99.90;5.80;97295.00;;;;5075300;28;20231;-71
2023/04/09 06:53:59;;;;;;;12.97;10.70;;;4.40;99.90;5.80;97291.00;;;;5088337;28;20707;-71
2023/04/09 06:56:47;;;;;;;11.37;8.60;;;4.50;99.90;5.90;97289.00;;;;5088897;28;20246;-72
2023/04/09 06:59:36;;;;;;;11.90;8.00;;;4.50;99.90;5.60;97294.00;;;;5084262;28;20199;-71
2023/04/09 07:02:26;;;;;;;9.03;7.40;;;4.50;99.90;5.80;97295.00;;;;5088906;28;20222;-72
2023/04/09 07:05:14;;;;;;;9.43;8.07;;;4.70;99.90;6.00;97299.00;;;;5084344;28;20200;-72
2023/04/09 07:08:05;;;;;;;11.07;8.20;;;4.50;99.90;6.00;97307.00;;;;5081148;28;20689;-71
2023/04/09 07:10:54;;;;;;;12.23;9.30;;;4.60;99.90;6.10;97307.00;;;;5080883;28;20907;-71
2023/04/09 07:13:43;;;;;;;9.97;8.37;;;4.60;99.90;6.30;97303.00;;;;5096494;28;20205;-70
2023/04/09 07:16:31;;;;;;;9.83;7.73;;;4.70;99.90;6.40;97308.00;;;;5082454;28;20204;-71
2023/04/09 07:19:20;;;;;;;11.43;8.53;;;4.80;99.90;6.60;97322.00;;;;5087089;28;20743;-71
2023/04/09 07:22:09;;;;;;;9.27;8.37;;;4.90;99.90;6.70;97314.00;;;;5082705;28;20226;-72
2023/04/09 07:24:59;;;;;;;12.07;9.10;;;5.00;99.90;6.80;97320.00;;;;5088476;28;20701;-72
2023/04/09 07:27:48;;;;;;;12.17;9.33;;;5.10;99.90;7.00;97309.00;;;;5088391;28;20202;-71
2023/04/09 07:30:37;;;;;;;9.70;8.70;;;5.20;99.90;6.90;97325.00;;;;5086496;28;20226;-72
2023/04/09 07:33:26;;;;;;;9.17;6.90;;;5.30;99.90;6.80;97312.00;;;;5086698;28;20193;-71
2023/04/09 07:36:14;;;;;;;8.83;7.93;;;5.40;99.90;6.80;97326.00;;;;5088348;28;20577;-71
2023/04/09 07:39:03;;;;;;;10.67;7.53;;;5.40;99.90;7.00;97328.00;;;;5081072;28;20234;-71
2023/04/09 07:41:53;;;;;;;9.27;8.27;;;5.50;99.90;6.90;97328.00;;;;5085635;28;20223;-72
2023/04/09 07:44:42;;;;;;;9.60;7.83;;;5.50;99.90;7.00;97323.00;;;;5091513;28;20195;-72
2023/04/09 07:47:31;;;;;;;10.23;7.97;;;5.50;99.90;6.70;97327.00;;;;5081003;28;20211;-72
2023/04/09 07:50:20;;;;;;;9.80;8.00;;;5.60;99.90;7.00;97334.00;;;;5082690;28;20187;-72
2023/04/09 07:53:08;;;;;;;10.10;8.40;;;5.60;99.90;7.30;97326.00;;;;5088398;28;20265;-72
2023/04/09 07:55:57;;;;;;;8.73;7.43;;;5.70;99.90;7.80;97322.00;;;;5088320;28;20207;-72
2023/04/09 07:58:48;;;;;;;9.87;8.33;;;5.90;99.90;7.70;97330.00;;;;5082401;28;20215;-72
2023/04/09 08:01:36;;;;;;;13.13;8.43;;;6.00;99.90;7.90;97321.00;;;;5090500;28;20215;-72
2023/04/09 08:04:25;;;;;;;8.60;7.43;;;6.10;99.90;7.90;97332.00;;;;5081460;28;20207;-72
2023/04/09 08:07:14;;;;;;;8.20;6.87;;;6.30;99.90;8.00;97335.00;;;;5091894;28;20202;-72
2023/04/09 08:10:03;;;;;;;9.30;7.37;;;6.40;99.90;8.10;97338.00;;;;5086747;28;20961;-72
2023/04/09 08:12:52;;;;;;;11.47;8.27;;;6.60;99.90;8.20;97346.00;;;;5093090;28;20209;-72
2023/04/09 08:15:42;;;;;;;10.67;8.90;;;6.70;99.90;8.30;97349.00;;;;5095239;28;20207;-71
2023/04/09 08:18:30;;;;;;;8.97;7.60;;;6.70;99.90;8.50;97352.00;;;;5079131;28;20313;-72
2023/04/09 08:21:20;;;;;;;14.00;11.53;;;6.80;99.90;8.20;97346.00;;;;5080293;28;20230;-72
2023/04/09 08:24:10;;;;;;;11.17;9.30;;;6.90;99.90;8.30;97346.00;;;;5085663;28;20241;-72
2023/04/09 08:26:58;;;;;;;11.97;9.03;;;6.90;99.90;8.40;97349.00;;;;5084027;28;20286;-72
2023/04/09 08:29:47;;;;;;;10.23;8.00;;;6.90;99.90;8.40;97353.00;;;;5082395;28;20248;-71
2023/04/09 08:32:37;;;;;;;8.53;7.63;;;6.90;99.90;8.20;97344.00;;;;5084685;28;20196;-72
2023/04/09 08:35:27;;;;;;;8.33;7.47;;;6.90;99.90;8.60;97348.00;;;;5087853;28;20191;-72
2023/04/09 08:38:15;;;;;;;9.10;7.43;;;7.00;99.90;9.00;97350.00;;;;5084382;28;20702;-72
2023/04/09 08:41:05;;;;;;;6.70;5.90;;;7.20;99.90;8.20;97350.00;;;;5092993;28;20246;-72
2023/04/09 08:43:55;;;;;;;7.50;6.77;;;7.20;99.90;9.20;97349.00;;;;5093667;28;20677;-71
2023/04/09 08:46:45;;;;;;;7.53;6.80;;;7.40;99.90;9.60;97350.00;;;;5095440;28;20202;-71
2023/04/09 08:49:36;;;;;;;6.63;5.97;;;7.60;99.90;9.70;97359.00;;;;5085655;28;20203;-72
2023/04/09 08:52:32;;;;;;;7.60;6.10;;;7.80;99.90;9.00;97357.00;;;;5092188;28;20219;-71
2023/04/09 08:55:21;;;;;;;8.17;7.20;;;7.90;99.90;9.30;97361.00;;;;5091309;28;20681;-71
2023/04/09 08:58:10;;;;;;;7.57;6.10;;;8.00;99.90;9.10;97363.00;;;;5094868;28;20218;-72
2023/04/09 09:00:59;;;;;;;7.73;6.57;;;7.90;99.90;9.40;97372.00;;;;5098338;28;20717;-72
2023/04/09 09:03:57;;;;;;;7.83;6.53;;;7.80;99.90;9.80;97379.00;;;;5096822;28;20196;-72
2023/04/09 09:06:47;;;;;;;7.73;6.90;;;7.90;99.90;9.80;97378.00;;;;5099763;28;20203;-73
2023/04/09 09:09:52;;;;;;;9.40;7.10;;;8.00;99.90;9.60;97376.00;;;;5085743;28;20204;-72
2023/04/09 09:12:42;;;;;;;6.23;5.63;;;8.00;99.90;9.80;97386.00;;;;5084918;28;20245;-72
2023/04/09 09:15:30;;;;;;;7.07;5.97;;;8.10;99.90;9.50;97383.00;;;;5082472;28;20626;-71
2023/04/09 09:18:19;;;;;;;7.30;6.63;;;8.10;99.90;9.40;97376.00;;;;5090741;28;20223;-71
2023/04/09 09:21:12;;;;;;;9.93;6.90;;;8.10;99.90;9.70;97382.00;;;;5090862;28;20290;-70
2023/04/09 09:24:02;;;;;;;9.67;7.17;;;8.10;99.90;10.20;97371.00;;;;5086625;28;20214;-71
2023/04/09 09:26:53;;;;;;;7.20;6.53;;;8.20;99.90;10.20;97370.00;;;;5087821;28;20223;-72
2023/04/09 09:29:43;;;;;;;8.00;6.20;;;8.40;99.90;9.30;97354.00;;;;5086091;28;20199;-71
2023/04/09 09:32:32;;;;;;;6.57;5.67;;;8.40;99.90;9.60;97363.00;;;;5089111;28;20592;-71
2023/04/09 09:35:22;;;;;;;7.53;6.83;;;8.40;99.90;9.80;97376.00;;;;5083870;28;20210;-71
2023/04/09 09:38:10;;;;;;;9.20;6.80;;;8.40;99.90;9.80;97386.00;;;;5085269;28;20219;-70
2023/04/09 09:41:17;;;;;;;7.77;7.00;;;8.40;99.90;9.80;97390.00;;;;5089029;28;20303;-71
2023/04/09 09:44:07;;;;;;;7.80;7.00;;;8.40;99.90;8.90;97394.00;;;;5086616;28;20192;-71
2023/04/09 09:46:57;;;;;;;7.27;6.50;;;8.20;99.90;8.70;97385.00;;;;5083948;28;20200;-72
2023/04/09 09:49:49;;;;;;;6.60;5.90;;;8.00;99.90;8.30;97395.00;;;;5086633;28;20192;-70
2023/04/09 09:52:39;;;;;;;8.23;5.43;;;7.80;99.90;7.00;97386.00;;;;5085158;28;20552;-69
2023/04/09 09:55:31;;;;;;;5.07;4.57;;;7.20;99.90;7.80;97394.00;;;;5086507;28;20199;-73
2023/04/09 09:58:28;;;;;;;5.47;4.30;;;6.90;99.90;7.30;97387.00;;;;5089654;28;20727;-71
2023/04/09 10:01:21;;;;;;;4.23;3.37;;;6.70;99.90;7.50;97398.00;;;;5085744;28;20222;-71
2023/04/09 10:04:14;;;;;;;4.60;4.20;;;6.60;99.90;7.50;97400.00;;;;5097680;28;20206;-71
2023/04/09 10:07:06;;;;;;;3.47;3.17;;;6.40;99.90;7.00;97402.00;;;;5097692;28;20211;-70
2023/04/09 10:09:57;;;;;;;3.73;3.43;;;6.30;99.90;7.00;97388.00;;;;5096444;28;20198;-71
2023/04/09 10:12:46;;;;;;;3.17;2.83;;;6.10;99.90;7.00;97407.00;;;;5096357;28;20619;-71
2023/04/09 10:15:37;;;;;;;2.63;2.43;;;6.10;99.90;7.10;97395.00;;;;5097324;27;20507;-70
2023/04/09 10:18:26;;;;;;;3.27;3.03;;;6.00;99.90;7.30;97403.00;;;;5094264;28;20222;-70
2023/04/09 10:21:26;;;;;;;3.57;3.20;;;6.00;99.90;7.50;97405.00;;;;5093902;28;20254;-71
2023/04/09 10:24:17;;;;;;;4.80;3.33;;;6.00;99.90;7.40;97404.00;;;;5096558;28;20190;-71
2023/04/09 10:27:12;;;;;;;2.13;1.93;;;6.00;99.90;7.10;97406.00;;;;5095899;28;20203;-71
2023/04/09 10:30:04;;;;;;;2.23;2.13;;;6.00;99.90;7.00;97408.00;;;;5093317;28;20222;-71
2023/04/09 10:32:54;;;;;;;1.60;1.50;;;5.90;99.90;6.60;97389.00;;;;5088254;28;20200;-71
2023/04/09 10:35:47;;;;;;;1.47;1.37;;;5.70;99.90;6.60;97378.00;;;;5087382;28;20204;-71
2023/04/09 10:38:37;;;;;;;1.70;1.60;;;5.60;99.90;6.20;97365.00;;;;5096644;28;20215;-69
2023/04/09 10:41:29;;;;;;;2.17;2.07;;;5.50;99.90;5.90;97367.00;;;;5091402;28;20207;-70
2023/04/09 10:44:22;;;;;;;2.43;2.07;;;5.30;99.90;6.60;97340.00;;;;5092456;28;20269;-69
2023/04/09 10:47:11;;;;;;;3.10;2.77;;;5.30;99.90;6.80;97332.00;;;;5097412;28;20248;-71
2023/04/09 10:50:16;;;;;;;3.43;3.00;;;5.60;99.90;6.60;97317.00;;;;5090951;28;20203;-68
2023/04/09 10:53:05;;;;;;;2.53;2.33;;;5.80;99.90;6.60;97318.00;;;;5093063;28;20207;-68
2023/04/09 10:55:55;;;;;;;2.23;2.03;;;5.90;99.90;7.20;97331.00;;;;5088256;28;20253;-67
2023/04/09 10:58:43;;;;;;;2.73;2.47;;;6.20;99.90;7.70;97357.00;;;;5081790;28;20226;-69
2023/04/09 11:01:32;;;;;;;2.50;2.30;;;8.10;99.90;7.70;97342.00;;;;5090214;28;20212;-71
2023/04/09 11:04:22;;;;;;;3.73;2.70;;;6.50;99.90;8.00;97332.00;;;;5087997;28;20240;-69
2023/04/09 11:07:15;;;;;;;3.70;3.10;;;6.70;99.90;8.10;97343.00;;;;5087170;28;20206;-69
2023/04/09 11:10:05;;;;;;;2.57;2.37;;;6.80;99.90;8.30;97333.00;;;;5084117;28;21197;-66
2023/04/09 11:12:54;;;;;;;3.87;3.47;;;7.00;99.90;8.50;97346.00;;;;5085271;28;20196;-68
2023/04/09 11:15:43;;;;;;;5.07;4.00;;;7.10;99.90;8.50;97344.00;;;;5082669;28;20192;-68
2023/04/09 11:18:33;;;;;;;4.10;3.70;;;7.30;99.90;8.20;97357.00;;;;5085493;28;20207;-69
2023/04/09 11:21:27;;;;;;;5.53;3.67;;;7.30;99.90;8.30;97352.00;;;;5087114;28;20228;-69
2023/04/09 11:24:19;;;;;;;3.57;3.27;;;7.30;99.90;8.70;97360.00;;;;5090776;28;20195;-70
2023/04/09 11:27:07;;;;;;;3.57;3.13;;;7.30;99.90;8.90;97364.00;;;;5083835;28;20207;-70
2023/04/09 11:29:57;;;;;;;4.13;3.73;;;7.40;99.90;9.20;97365.00;;;;5078315;28;20265;-69
2023/04/09 11:32:46;;;;;;;3.83;3.53;;;7.40;99.90;9.10;97362.00;;;;5083398;28;20508;-69
2023/04/09 11:35:36;;;;;;;4.00;3.67;;;7.50;99.90;8.90;97361.00;;;;5083270;28;20692;-69
2023/04/09 11:38:24;;;;;;;3.47;3.10;;;7.50;99.90;8.70;97362.00;;;;5083665;28;20195;-69
2023/04/09 11:41:15;;;;;;;4.23;3.90;;;7.40;99.90;8.10;97352.00;;;;5084235;28;20688;-69
2023/04/09 11:44:04;;;;;;;3.30;3.00;;;7.30;99.90;7.90;97364.00;;;;5087322;28;20646;-69
2023/04/09 11:46:53;;;;;;;3.13;2.80;;;7.20;99.90;8.20;97376.00;;;;5084961;28;20700;-69
2023/04/09 11:49:42;;;;;;;4.00;3.30;;;7.00;99.90;8.30;97381.00;;;;5080113;28;20733;-69
2023/04/09 11:52:34;;;;;;;3.43;3.13;;;7.00;99.90;8.30;97391.00;;;;5086070;28;20276;-69
2023/04/09 11:55:24;;;;;;;4.37;3.60;;;6.90;99.90;8.30;97383.00;;;;5082364;28;20260;-69
2023/04/09 11:58:15;;;;;;;4.80;4.00;;;6.90;99.90;8.10;97389.00;;;;5081345;28;20203;-69
2023/04/09 12:01:04;;;;;;;4.00;3.60;;;6.80;99.90;8.10;97378.00;;;;5082876;28;20836;-69
2023/04/09 12:03:54;;;;;;;3.53;3.10;;;6.80;99.90;8.10;97384.00;;;;5083922;28;20677;-69
2023/04/09 12:06:43;;;;;;;3.43;3.00;;;6.70;99.90;7.90;97382.00;;;;5086124;28;20196;-69
2023/04/09 12:09:31;;;;;;;4.40;4.00;;;6.70;99.90;7.80;97373.00;;;;5087490;28;20216;-69
2023/04/09 12:12:24;;;;;;;3.27;2.97;;;6.60;99.90;7.60;97373.00;;;;5088526;28;20301;-68
2023/04/09 12:15:20;;;;;;;3.20;2.90;;;6.50;99.90;7.70;97369.00;;;;5078809;28;20196;-69
2023/04/09 12:18:11;;;;;;;4.50;3.40;;;6.50;99.90;7.40;97360.00;;;;5086310;28;20192;-68
2023/04/09 12:21:01;;;;;;;3.23;2.90;;;6.50;99.90;8.10;97369.00;;;;5084383;28;20236;-68
2023/04/09 12:23:50;;;;;;;3.17;2.87;;;6.60;99.90;8.20;97375.00;;;;5086907;28;20190;-69
2023/04/09 12:26:38;;;;;;;3.37;3.07;;;6.70;99.90;8.20;97384.00;;;;5084927;28;20195;-70
2023/04/09 12:29:28;;;;;;;4.53;3.63;;;6.70;99.90;8.50;97387.00;;;;5091022;28;20220;-70
2023/04/09 12:32:19;;;;;;;7.03;4.37;;;6.80;99.90;8.80;97388.00;;;;5085711;28;20251;-70
2023/04/09 12:35:08;;;;;;;3.87;3.13;;;6.90;99.90;8.70;97389.00;;;;5093786;28;20219;-71
2023/04/09 12:37:58;;;;;;;3.60;3.23;;;7.00;99.90;8.70;97377.00;;;;5089597;28;20203;-70
2023/04/09 12:40:46;;;;;;;4.07;3.77;;;7.10;99.90;8.50;97372.00;;;;5086068;28;20227;-70